Time;durP1;ratioP1;P1;durP2;ratioP2;P2;SDS_P1;SDS_P2;PMS_P1;PMS_P2;Temp;Humidity;BMP_temperature;BMP_pressure;BME280_temperature;BME280_humidity;BME280_pressure;Samples;Min_cycle;Max_cycle;Signal;HPM_P1;HPM_P2
2023/09/21 00:01:07;;;;;;;5.15;1.25;;;22.30;30.20;;;;;;5075490;28;20086;-80
2023/09/21 00:03:36;;;;;;;6.15;1.00;;;22.50;31.00;;;;;;5089499;28;20036;-80
2023/09/21 00:06:05;;;;;;;4.18;1.13;;;22.70;31.00;;;;;;5078829;28;20040;-81
2023/09/21 00:08:33;;;;;;;2.35;1.08;;;22.80;30.30;;;;;;5072516;28;20020;-81
2023/09/21 00:11:07;;;;;;;5.15;1.23;;;22.80;29.70;;;;;;5085816;28;20030;-80
2023/09/21 00:13:39;;;;;;;2.88;0.85;;;22.90;29.00;;;;;;5080009;28;20021;-78
2023/09/21 00:16:14;;;;;;;1.85;1.10;;;22.80;29.40;;;;;;5088654;28;20028;-80
2023/09/21 00:18:43;;;;;;;4.18;1.55;;;22.90;29.50;;;;;;5089999;28;20091;-78
2023/09/21 00:21:12;;;;;;;5.78;1.13;;;23.20;29.20;;;;;;5079855;28;20025;-78
2023/09/21 00:23:40;;;;;;;4.38;1.13;;;23.00;28.90;;;;;;5092752;28;20047;-77
2023/09/21 00:26:09;;;;;;;4.10;1.40;;;23.00;28.80;;;;;;5083144;28;20060;-80
2023/09/21 00:28:36;;;;;;;2.95;1.10;;;22.90;29.40;;;;;;5082067;28;20050;-78
2023/09/21 00:31:04;;;;;;;3.22;1.00;;;22.90;29.30;;;;;;5085288;28;20044;-80
2023/09/21 00:33:34;;;;;;;4.18;1.10;;;23.00;29.80;;;;;;5078320;28;20027;-79
2023/09/21 00:36:04;;;;;;;2.90;0.90;;;23.10;28.80;;;;;;5087685;28;20097;-80
2023/09/21 00:38:31;;;;;;;5.30;1.08;;;23.30;29.40;;;;;;5086075;28;20107;-80
2023/09/21 00:41:05;;;;;;;2.40;1.10;;;23.50;29.10;;;;;;5076841;28;20050;-80
2023/09/21 00:43:33;;;;;;;4.68;1.15;;;23.70;29.20;;;;;;5080754;28;20028;-79
2023/09/21 00:46:04;;;;;;;6.18;1.10;;;23.80;31.30;;;;;;5081680;28;20429;-82
2023/09/21 00:48:38;;;;;;;5.78;1.13;;;23.90;32.60;;;;;;5084044;28;20454;-80
2023/09/21 00:51:09;;;;;;;4.95;1.00;;;24.00;33.90;;;;;;5055764;28;20086;-82
2023/09/21 00:53:39;;;;;;;5.50;1.20;;;24.00;34.50;;;;;;5053709;28;20017;-81
2023/09/21 00:56:11;;;;;;;6.60;1.35;;;24.00;35.20;;;;;;5055131;28;20047;-80
2023/09/21 00:58:45;;;;;;;8.25;1.55;;;24.10;36.00;;;;;;5054708;28;20025;-81
2023/09/21 01:01:27;;;;;;;9.80;1.60;;;24.20;36.40;;;;;;5054785;28;20459;-80
2023/09/21 01:03:56;;;;;;;7.35;1.92;;;24.20;41.30;;;;;;5054723;28;20040;-82
2023/09/21 01:06:23;;;;;;;9.55;1.70;;;24.00;43.90;;;;;;5054859;28;20040;-81
2023/09/21 01:08:51;;;;;;;9.13;1.90;;;23.80;44.20;;;;;;5067690;28;20064;-79
2023/09/21 01:11:19;;;;;;;7.93;1.73;;;23.80;44.00;;;;;;5053249;28;20029;-79
2023/09/21 01:13:54;;;;;;;11.27;1.73;;;23.60;42.10;;;;;;5053972;28;20494;-81
2023/09/21 01:16:24;;;;;;;8.88;2.05;;;23.70;42.90;;;;;;5051863;28;20035;-81
2023/09/21 01:18:52;;;;;;;11.93;1.73;;;23.60;44.80;;;;;;5054093;28;20541;-81
2023/09/21 01:21:34;;;;;;;7.55;1.50;;;23.30;45.70;;;;;;5054104;28;20540;-82
2023/09/21 01:24:02;;;;;;;5.10;1.63;;;23.30;46.20;;;;;;5054479;28;20575;-81
2023/09/21 01:26:29;;;;;;;7.43;1.50;;;23.40;45.10;;;;;;5054229;28;20029;-81
2023/09/21 01:28:58;;;;;;;3.80;1.40;;;23.30;44.60;;;;;;5053857;28;20422;-80
2023/09/21 01:31:25;;;;;;;3.85;1.15;;;23.30;45.00;;;;;;5087732;28;20096;-82
2023/09/21 01:33:53;;;;;;;6.65;1.52;;;23.30;45.60;;;;;;5083778;28;20020;-81
2023/09/21 01:36:23;;;;;;;7.82;1.70;;;23.30;45.80;;;;;;5091879;28;20044;-81
2023/09/21 01:38:51;;;;;;;5.90;1.20;;;23.50;46.10;;;;;;5090887;28;20024;-81
2023/09/21 01:41:19;;;;;;;4.95;1.27;;;23.60;47.10;;;;;;5092278;28;20028;-81
2023/09/21 01:43:47;;;;;;;6.90;1.30;;;23.60;47.80;;;;;;5082266;28;20028;-80
2023/09/21 01:46:22;;;;;;;3.80;1.13;;;23.70;47.00;;;;;;5071238;28;20031;-81
2023/09/21 01:48:50;;;;;;;;;;;23.70;47.70;;;;;;5085088;28;20028;-81
2023/09/21 01:51:17;;;;;;;5.43;1.25;;;23.70;48.30;;;;;;5077353;28;19911;-80
2023/09/21 01:53:45;;;;;;;7.13;1.50;;;23.70;48.50;;;;;;5084453;28;20050;-81
2023/09/21 01:56:14;;;;;;;4.47;1.10;;;23.60;48.90;;;;;;5073260;28;20056;-81
2023/09/21 01:58:41;;;;;;;7.00;1.65;;;23.60;49.30;;;;;;5083255;28;20099;-80
2023/09/21 02:01:09;;;;;;;4.40;1.20;;;23.50;49.30;;;;;;5078594;28;20029;-80
2023/09/21 02:03:36;;;;;;;8.13;1.23;;;23.40;49.60;;;;;;5083077;28;20398;-82
2023/09/21 02:06:04;;;;;;;8.63;1.90;;;23.40;49.60;;;;;;5078722;28;20077;-81
2023/09/21 02:08:33;;;;;;;8.40;1.58;;;23.30;49.80;;;;;;5083933;28;20107;-81
2023/09/21 02:11:00;;;;;;;7.57;1.30;;;23.10;50.00;;;;;;5086211;28;20020;-81
2023/09/21 02:13:27;;;;;;;5.65;1.40;;;22.90;50.10;;;;;;5076123;28;20025;-80
2023/09/21 02:15:55;;;;;;;4.03;1.20;;;22.90;49.80;;;;;;5088903;28;20008;-81
2023/09/21 02:18:22;;;;;;;5.53;1.60;;;22.80;49.40;;;;;;5079634;28;20406;-80
2023/09/21 02:20:50;;;;;;;7.57;1.95;;;22.80;50.10;;;;;;5081608;28;20059;-79
2023/09/21 02:23:20;;;;;;;7.45;1.55;;;22.80;49.70;;;;;;5085489;28;20047;-80
2023/09/21 02:25:47;;;;;;;7.18;1.40;;;22.90;49.50;;;;;;5075065;28;20118;-81
2023/09/21 02:28:16;;;;;;;9.85;1.73;;;23.00;49.40;;;;;;5085719;28;20511;-80
2023/09/21 02:30:47;;;;;;;7.25;1.52;;;23.10;49.40;;;;;;5084943;28;20024;-80
2023/09/21 02:33:19;;;;;;;6.18;1.40;;;23.10;49.90;;;;;;5078485;28;20414;-81
2023/09/21 02:35:47;;;;;;;5.57;1.67;;;23.10;49.30;;;;;;5095021;28;20111;-81
2023/09/21 02:38:20;;;;;;;8.75;1.70;;;23.20;49.40;;;;;;5086585;28;20028;-80
2023/09/21 02:40:47;;;;;;;10.73;1.92;;;23.20;49.50;;;;;;5083231;28;20028;-79
2023/09/21 02:43:15;;;;;;;4.63;1.42;;;23.30;49.80;;;;;;5077149;28;20032;-81
2023/09/21 02:45:44;;;;;;;5.35;1.40;;;23.00;49.60;;;;;;5089718;28;20442;-80
2023/09/21 02:48:12;;;;;;;8.63;1.52;;;23.20;48.20;;;;;;5079055;28;20028;-81
2023/09/21 02:50:39;;;;;;;5.03;1.35;;;23.20;48.40;;;;;;5082085;28;20486;-80
2023/09/21 02:53:11;;;;;;;8.95;1.80;;;23.10;47.70;;;;;;5085526;28;20020;-80
2023/09/21 02:55:42;;;;;;;6.20;1.60;;;23.00;48.60;;;;;;5074292;28;20094;-80
2023/09/21 02:58:13;;;;;;;7.88;1.58;;;22.90;48.90;;;;;;5085378;28;20024;-82
2023/09/21 03:00:42;;;;;;;5.45;1.65;;;23.00;48.60;;;;;;5082982;28;20028;-80
2023/09/21 03:03:15;;;;;;;7.32;1.60;;;22.90;47.60;;;;;;5077136;28;20017;-81
2023/09/21 03:05:47;;;;;;;4.45;1.52;;;22.80;48.90;;;;;;5088921;28;20026;-80
2023/09/21 03:08:15;;;;;;;11.48;2.00;;;22.90;48.20;;;;;;5079079;28;20560;-80
2023/09/21 03:10:48;;;;;;;9.77;1.42;;;22.90;48.20;;;;;;5081615;28;20055;-80
2023/09/21 03:13:20;;;;;;;8.00;1.58;;;22.80;47.40;;;;;;5085838;28;20024;-81
2023/09/21 03:15:50;;;;;;;5.15;1.60;;;22.90;48.50;;;;;;5075148;28;20028;-80
2023/09/21 03:18:21;;;;;;;8.65;1.60;;;22.80;48.80;;;;;;5084990;28;20371;-82
2023/09/21 03:20:51;;;;;;;7.30;1.70;;;22.90;48.70;;;;;;5083641;28;20016;-83
2023/09/21 03:23:20;;;;;;;4.90;1.63;;;23.00;48.30;;;;;;5076060;28;20036;-82
2023/09/21 03:25:49;;;;;;;8.23;1.55;;;23.10;47.80;;;;;;5088593;28;20501;-80
2023/09/21 03:28:19;;;;;;;8.50;1.70;;;23.10;47.60;;;;;;5079272;28;20028;-82
2023/09/21 03:30:48;;;;;;;6.22;1.67;;;23.00;46.70;;;;;;5081028;28;20811;-82
2023/09/21 03:33:18;;;;;;;11.88;1.63;;;23.10;47.40;;;;;;5086369;28;20181;-82
2023/09/21 03:35:46;;;;;;;7.78;1.73;;;23.20;48.20;;;;;;5088383;28;20528;-81
2023/09/21 03:38:24;;;;;;;7.63;1.60;;;23.20;48.30;;;;;;5079687;28;20040;-82
2023/09/21 03:40:51;;;;;;;8.77;2.15;;;23.20;47.60;;;;;;5083909;28;20162;-81
2023/09/21 03:43:21;;;;;;;10.82;2.15;;;23.10;48.10;;;;;;5090789;28;20032;-80
2023/09/21 03:45:48;;;;;;;3.67;1.33;;;23.10;48.50;;;;;;5078759;28;20016;-80
2023/09/21 03:48:16;;;;;;;6.13;1.58;;;23.20;48.90;;;;;;5088752;28;20028;-81
2023/09/21 03:50:44;;;;;;;7.00;1.40;;;23.30;48.30;;;;;;5077520;28;20044;-81
2023/09/21 03:53:11;;;;;;;7.22;1.73;;;23.30;47.20;;;;;;5094498;28;20020;-79
2023/09/21 03:55:41;;;;;;;7.28;1.92;;;23.30;46.80;;;;;;5078399;28;20040;-79
2023/09/21 03:58:09;;;;;;;7.07;1.65;;;23.20;47.00;;;;;;5089574;28;20016;-80
2023/09/21 04:00:38;;;;;;;5.75;1.42;;;23.10;47.20;;;;;;5084784;28;20487;-81
2023/09/21 04:03:11;;;;;;;7.60;1.40;;;23.10;47.50;;;;;;5080997;28;20232;-81
2023/09/21 04:05:40;;;;;;;8.75;1.50;;;23.20;47.80;;;;;;5074646;28;20028;-82
2023/09/21 04:08:08;;;;;;;6.10;1.75;;;23.20;47.80;;;;;;5074858;28;20472;-80
2023/09/21 04:10:36;;;;;;;7.10;2.00;;;23.20;47.70;;;;;;5077670;28;20091;-79
2023/09/21 04:13:05;;;;;;;5.25;1.40;;;23.20;47.20;;;;;;5074777;28;20483;-81
2023/09/21 04:15:32;;;;;;;7.82;1.48;;;23.30;47.00;;;;;;5072842;28;20391;-80
2023/09/21 04:18:01;;;;;;;7.22;1.80;;;23.30;47.00;;;;;;5075418;28;20466;-81
2023/09/21 04:20:34;;;;;;;7.60;1.60;;;23.50;46.90;;;;;;5075577;28;20107;-80
2023/09/21 04:23:01;;;;;;;7.43;1.65;;;23.50;46.50;;;;;;5072021;28;20265;-81
2023/09/21 04:25:28;;;;;;;2.88;0.95;;;23.50;46.30;;;;;;5073789;28;20020;-81
2023/09/21 04:27:56;;;;;;;9.35;1.70;;;23.50;46.20;;;;;;5071573;28;20081;-80
2023/09/21 04:30:24;;;;;;;10.13;1.77;;;23.50;46.60;;;;;;5083265;28;20028;-80
2023/09/21 04:32:53;;;;;;;7.80;1.40;;;23.30;46.20;;;;;;5083284;28;20028;-81
2023/09/21 04:35:21;;;;;;;8.77;1.45;;;23.30;46.70;;;;;;5089463;28;20035;-81
2023/09/21 04:37:54;;;;;;;7.43;1.50;;;23.30;46.20;;;;;;5078281;28;20036;-81
2023/09/21 04:40:23;;;;;;;6.95;1.90;;;23.10;46.30;;;;;;5086739;28;20021;-80
2023/09/21 04:42:50;;;;;;;9.90;1.58;;;22.90;46.60;;;;;;5086765;28;20023;-80
2023/09/21 04:45:18;;;;;;;4.65;1.30;;;22.90;46.90;;;;;;5092341;28;20057;-80
2023/09/21 04:47:49;;;;;;;7.70;1.58;;;23.00;47.60;;;;;;5076278;28;20378;-80
2023/09/21 04:50:18;;;;;;;4.03;1.23;;;23.20;46.80;;;;;;5086192;28;20100;-78
2023/09/21 04:52:48;;;;;;;5.40;1.50;;;23.20;46.50;;;;;;5085671;28;20116;-81
2023/09/21 04:55:16;;;;;;;4.50;1.55;;;23.20;46.00;;;;;;5078734;28;20170;-80
2023/09/21 04:57:44;;;;;;;5.80;1.50;;;23.10;46.50;;;;;;5091117;28;20463;-81
2023/09/21 05:00:13;;;;;;;7.28;1.55;;;23.10;46.30;;;;;;5081005;28;20043;-81
2023/09/21 05:02:41;;;;;;;5.78;1.63;;;22.90;46.20;;;;;;5083665;28;20410;-80
2023/09/21 05:05:10;;;;;;;10.43;1.52;;;22.90;46.60;;;;;;5086723;28;20056;-81
2023/09/21 05:07:38;;;;;;;7.13;1.67;;;22.80;46.60;;;;;;5076596;28;20432;-80
2023/09/21 05:10:07;;;;;;;4.15;1.13;;;22.70;47.00;;;;;;5087247;28;20064;-81
2023/09/21 05:12:34;;;;;;;10.10;1.42;;;22.60;47.70;;;;;;5084045;28;20421;-81
2023/09/21 05:15:07;;;;;;;5.95;1.50;;;22.50;47.10;;;;;;5080294;28;20090;-81
2023/09/21 05:17:39;;;;;;;7.57;1.40;;;22.50;47.10;;;;;;5090774;28;20016;-81
2023/09/21 05:20:09;;;;;;;6.85;1.30;;;22.60;47.00;;;;;;5079960;28;20043;-81
2023/09/21 05:22:39;;;;;;;5.57;1.38;;;22.60;46.70;;;;;;5084049;28;20025;-80
2023/09/21 05:25:08;;;;;;;8.90;1.70;;;22.60;47.30;;;;;;5085483;28;20047;-80
2023/09/21 05:27:38;;;;;;;5.28;1.40;;;22.70;46.90;;;;;;5077289;28;20021;-80
2023/09/21 05:30:08;;;;;;;5.28;1.52;;;22.50;47.10;;;;;;5088044;28;20032;-81
2023/09/21 05:32:37;;;;;;;5.60;1.17;;;22.40;47.20;;;;;;5083711;28;20475;-81
2023/09/21 05:35:10;;;;;;;7.57;1.55;;;22.30;47.50;;;;;;5079802;28;20031;-80
2023/09/21 05:37:38;;;;;;;7.28;1.77;;;22.10;47.60;;;;;;5090253;28;20458;-80
2023/09/21 05:40:06;;;;;;;10.30;1.90;;;21.90;47.80;;;;;;5079435;28;20031;-80
2023/09/21 05:42:36;;;;;;;5.22;1.40;;;21.80;47.90;;;;;;5082901;28;20059;-81
2023/09/21 05:45:04;;;;;;;13.43;1.50;;;21.70;48.40;;;;;;5084661;28;20093;-81
2023/09/21 05:47:32;;;;;;;4.50;1.50;;;21.50;47.90;;;;;;5076960;28;20027;-80
2023/09/21 05:49:59;;;;;;;3.88;1.42;;;21.40;47.90;;;;;;5087599;28;20489;-81
2023/09/21 05:52:29;;;;;;;6.65;1.40;;;21.30;47.70;;;;;;5080701;28;20451;-79
2023/09/21 05:54:57;;;;;;;9.25;1.60;;;21.20;48.90;;;;;;5080547;28;20028;-80
2023/09/21 05:57:24;;;;;;;7.38;1.77;;;21.00;49.20;;;;;;5090014;28;20122;-81
2023/09/21 05:59:52;;;;;;;9.75;1.67;;;20.80;50.00;;;;;;5061094;28;20028;-80
2023/09/21 06:02:19;;;;;;;9.88;1.95;;;20.50;49.80;;;;;;5085914;28;20021;-80
2023/09/21 06:04:47;;;;;;;6.10;1.52;;;20.40;50.90;;;;;;5075834;28;20047;-79
2023/09/21 06:07:15;;;;;;;7.55;1.40;;;20.40;51.00;;;;;;5073160;28;20021;-80
2023/09/21 06:09:45;;;;;;;10.07;1.50;;;20.50;50.70;;;;;;5072720;28;20024;-80
2023/09/21 06:12:16;;;;;;;6.63;1.38;;;20.40;50.10;;;;;;5070573;28;20021;-83
2023/09/21 06:14:43;;;;;;;7.07;1.63;;;20.40;50.50;;;;;;5070623;28;20031;-80
2023/09/21 06:17:15;;;;;;;6.55;1.60;;;20.30;50.80;;;;;;5084953;28;20035;-80
2023/09/21 06:19:44;;;;;;;6.95;1.60;;;20.20;51.20;;;;;;5088253;28;20044;-82
2023/09/21 06:22:12;;;;;;;8.65;1.92;;;20.20;50.50;;;;;;5077932;28;20362;-80
2023/09/21 06:24:42;;;;;;;7.07;1.50;;;20.20;50.90;;;;;;5080554;28;20044;-82
2023/09/21 06:27:09;;;;;;;7.55;1.52;;;20.10;50.70;;;;;;5073524;28;20031;-81
2023/09/21 06:29:37;;;;;;;8.05;1.42;;;20.00;51.50;;;;;;5088156;28;20126;-81
2023/09/21 06:32:07;;;;;;;9.52;1.70;;;20.00;51.20;;;;;;5076970;28;20012;-81
2023/09/21 06:34:41;;;;;;;7.80;1.35;;;20.00;50.90;;;;;;5082599;28;20036;-84
2023/09/21 06:37:09;;;;;;;8.38;1.65;;;19.90;51.20;;;;;;5073510;28;20047;-81
2023/09/21 06:39:36;;;;;;;8.95;1.67;;;19.90;51.20;;;;;;5089471;28;20421;-83
2023/09/21 06:42:04;;;;;;;5.32;1.88;;;19.80;50.50;;;;;;5078039;28;20023;-81
2023/09/21 06:44:33;;;;;;;10.27;2.10;;;19.80;50.70;;;;;;5083105;28;20068;-81
2023/09/21 06:47:00;;;;;;;7.53;1.63;;;19.80;50.90;;;;;;5085168;28;20433;-81
2023/09/21 06:49:29;;;;;;;8.60;1.58;;;19.80;50.20;;;;;;5076112;28;20074;-80
2023/09/21 06:51:58;;;;;;;8.88;1.92;;;19.70;50.10;;;;;;5088189;28;20020;-81
2023/09/21 06:54:27;;;;;;;9.18;1.70;;;19.60;51.20;;;;;;5078282;28;20067;-81
2023/09/21 06:57:03;;;;;;;6.68;1.50;;;19.50;50.80;;;;;;5072980;28;20482;-80
2023/09/21 06:59:34;;;;;;;4.40;1.35;;;19.30;51.10;;;;;;5072439;28;20021;-82
2023/09/21 07:02:02;;;;;;;6.57;1.60;;;19.20;51.70;;;;;;5077433;28;20067;-80
2023/09/21 07:04:33;;;;;;;9.93;1.60;;;19.30;51.60;;;;;;5083328;28;20230;-82
2023/09/21 07:07:07;;;;;;;3.65;1.10;;;19.20;51.00;;;;;;5085516;28;20020;-81
2023/09/21 07:09:35;;;;;;;15.73;1.83;;;19.10;51.10;;;;;;5075556;28;20046;-83
2023/09/21 07:12:05;;;;;;;5.00;1.00;;;19.00;51.50;;;;;;5086810;28;20029;-80
2023/09/21 07:14:36;;;;;;;9.27;1.33;;;18.80;51.80;;;;;;5081888;28;20085;-81
2023/09/21 07:17:06;;;;;;;6.40;1.63;;;18.80;52.60;;;;;;5076065;28;20026;-82
2023/09/21 07:19:37;;;;;;;8.65;1.67;;;18.80;52.20;;;;;;5092277;28;20031;-81
2023/09/21 07:22:05;;;;;;;10.68;1.63;;;18.80;51.80;;;;;;5081909;28;20032;-80
2023/09/21 07:24:33;;;;;;;3.65;1.23;;;18.70;52.00;;;;;;5086829;28;20060;-82
2023/09/21 07:27:01;;;;;;;5.07;1.60;;;18.70;52.70;;;;;;5088722;28;20020;-81
2023/09/21 07:29:31;;;;;;;6.57;1.50;;;18.80;53.20;;;;;;5078248;28;20025;-81
2023/09/21 07:31:59;;;;;;;9.48;1.60;;;18.80;52.40;;;;;;5091094;28;20155;-79
2023/09/21 07:34:29;;;;;;;7.05;1.20;;;18.70;52.70;;;;;;5076024;28;20017;-80
2023/09/21 07:36:57;;;;;;;8.55;1.73;;;18.60;52.50;;;;;;5087381;28;20086;-81
2023/09/21 07:39:24;;;;;;;10.82;1.77;;;18.60;52.60;;;;;;5096453;28;20175;-79
2023/09/21 07:41:53;;;;;;;4.90;1.42;;;18.60;52.60;;;;;;5089355;28;20053;-81
2023/09/21 07:44:22;;;;;;;15.95;5.45;;;18.50;52.70;;;;;;5096161;28;20479;-79
2023/09/21 07:46:56;;;;;;;11.10;1.90;;;18.60;52.30;;;;;;5096239;28;20398;-80
2023/09/21 07:49:25;;;;;;;5.82;1.40;;;18.50;51.90;;;;;;5096455;28;20032;-81
2023/09/21 07:51:55;;;;;;;10.80;2.65;;;18.50;52.20;;;;;;5096379;28;20024;-80
2023/09/21 07:54:23;;;;;;;15.07;2.33;;;18.50;51.60;;;;;;5096411;28;20024;-80
2023/09/21 07:56:51;;;;;;;6.80;1.67;;;18.30;51.80;;;;;;5095124;28;20032;-81
2023/09/21 07:59:19;;;;;;;14.90;3.28;;;18.30;52.10;;;;;;5096281;28;20030;-80
2023/09/21 08:01:48;;;;;;;6.10;1.83;;;18.30;52.10;;;;;;5096129;28;20069;-80
2023/09/21 08:04:17;;;;;;;7.53;1.52;;;18.30;50.80;;;;;;5096106;28;20383;-81
2023/09/21 08:06:44;;;;;;;5.72;1.95;;;18.20;51.30;;;;;;5094863;28;20467;-80
2023/09/21 08:09:14;;;;;;;8.05;2.20;;;18.20;51.90;;;;;;5095967;28;20107;-80
2023/09/21 08:11:41;;;;;;;7.00;1.38;;;18.20;52.60;;;;;;5095737;28;20026;-80
2023/09/21 08:14:09;;;;;;;8.20;1.40;;;18.20;51.70;;;;;;5095858;28;20024;-81
2023/09/21 08:16:38;;;;;;;9.55;1.33;;;18.20;52.10;;;;;;5095639;28;20051;-81
2023/09/21 08:19:06;;;;;;;7.53;2.10;;;18.20;51.80;;;;;;5095722;28;20107;-81
2023/09/21 08:21:33;;;;;;;9.55;1.83;;;18.10;52.20;;;;;;5095428;28;20065;-79
2023/09/21 08:24:01;;;;;;;7.85;1.52;;;18.10;52.30;;;;;;5094781;28;20051;-81
2023/09/21 08:26:28;;;;;;;7.13;1.55;;;18.00;52.50;;;;;;5094940;28;20051;-80
2023/09/21 08:28:58;;;;;;;5.07;1.40;;;18.00;52.50;;;;;;5095311;28;20031;-81
2023/09/21 08:31:25;;;;;;;6.10;1.40;;;18.00;53.20;;;;;;5095505;28;20017;-81
2023/09/21 08:33:52;;;;;;;4.63;1.30;;;18.00;52.70;;;;;;5095412;28;20024;-82
2023/09/21 08:36:20;;;;;;;12.70;2.00;;;18.00;53.30;;;;;;5084972;28;20033;-81
2023/09/21 08:38:48;;;;;;;12.05;2.80;;;18.00;53.00;;;;;;5075102;28;20032;-82
2023/09/21 08:41:16;;;;;;;11.05;2.10;;;18.00;53.20;;;;;;5083178;28;20027;-83
2023/09/21 08:43:48;;;;;;;9.48;1.70;;;18.00;52.70;;;;;;5082139;28;21250;-84
2023/09/21 08:46:18;;;;;;;13.27;1.70;;;18.00;52.80;;;;;;5075650;28;20028;-81
2023/09/21 08:48:48;;;;;;;4.28;1.80;;;17.90;52.50;;;;;;5068230;28;20036;-83
2023/09/21 08:51:18;;;;;;;6.72;1.65;;;17.90;53.00;;;;;;5070349;28;20021;-79
2023/09/21 08:53:51;;;;;;;9.02;1.80;;;17.80;53.40;;;;;;5071204;28;20086;-80
2023/09/21 08:56:23;;;;;;;8.82;2.30;;;17.80;53.80;;;;;;5074356;28;20017;-81
2023/09/21 08:58:54;;;;;;;4.50;1.58;;;17.90;54.30;;;;;;5073451;28;20027;-81
2023/09/21 09:01:22;;;;;;;10.30;2.10;;;17.90;54.70;;;;;;5071504;28;20028;-81
2023/09/21 09:03:51;;;;;;;7.22;1.90;;;17.90;55.00;;;;;;5073351;28;20029;-82
2023/09/21 09:06:19;;;;;;;6.90;1.40;;;18.00;55.50;;;;;;5074453;28;20024;-81
2023/09/21 09:08:47;;;;;;;7.65;1.70;;;18.00;55.40;;;;;;5074639;28;20021;-83
2023/09/21 09:11:44;;;;;;;5.43;1.73;;;18.10;55.60;;;;;;5074319;28;20407;-83
2023/09/21 09:14:21;;;;;;;4.72;1.52;;;18.10;55.50;;;;;;5074257;28;20039;-81
2023/09/21 09:16:49;;;;;;;9.57;1.85;;;18.10;55.60;;;;;;5074134;28;20021;-81
2023/09/21 09:19:17;;;;;;;11.55;1.98;;;18.00;55.00;;;;;;5074046;28;20027;-83
2023/09/21 09:21:50;;;;;;;8.00;1.45;;;17.90;55.30;;;;;;5073967;28;20035;-82
2023/09/21 09:24:20;;;;;;;8.95;2.38;;;17.90;55.30;;;;;;5074081;28;20123;-80
2023/09/21 09:26:47;;;;;;;9.85;1.70;;;18.00;56.00;;;;;;5074042;28;20154;-81
2023/09/21 09:29:16;;;;;;;8.07;2.17;;;18.00;55.90;;;;;;5073955;28;20510;-81
2023/09/21 09:31:47;;;;;;;8.43;2.00;;;18.00;56.20;;;;;;5073915;28;20027;-81
2023/09/21 09:34:18;;;;;;;6.38;1.95;;;18.00;56.00;;;;;;5073972;28;20025;-80
2023/09/21 09:36:49;;;;;;;6.15;1.88;;;18.00;55.50;;;;;;5073438;28;20032;-81
2023/09/21 09:39:18;;;;;;;15.95;1.60;;;17.90;55.70;;;;;;5073816;28;20087;-81
2023/09/21 09:41:48;;;;;;;14.77;2.08;;;17.90;55.70;;;;;;5073833;28;20020;-81
2023/09/21 09:44:24;;;;;;;9.25;1.52;;;17.90;55.80;;;;;;5073618;28;20210;-81
2023/09/21 09:46:58;;;;;;;8.68;2.00;;;17.90;55.80;;;;;;5073322;28;20020;-82
2023/09/21 09:49:32;;;;;;;6.57;1.90;;;17.90;56.30;;;;;;5073861;28;20048;-82
2023/09/21 09:52:01;;;;;;;10.75;1.83;;;17.90;55.80;;;;;;5073263;28;20035;-81
2023/09/21 09:54:30;;;;;;;12.40;1.90;;;17.90;55.90;;;;;;5073460;28;20031;-83
2023/09/21 09:57:01;;;;;;;9.55;1.92;;;17.90;56.10;;;;;;5073293;28;20059;-81
2023/09/21 09:59:28;;;;;;;12.63;2.45;;;17.90;56.40;;;;;;5073513;28;20020;-81
2023/09/21 10:01:57;;;;;;;7.32;1.98;;;17.80;56.20;;;;;;5071929;28;20079;-81
2023/09/21 10:04:26;;;;;;;7.97;2.30;;;17.80;56.60;;;;;;5073269;28;20029;-81
2023/09/21 10:06:54;;;;;;;9.90;2.00;;;17.90;56.70;;;;;;5073310;28;20388;-83
2023/09/21 10:09:21;;;;;;;11.13;2.38;;;17.90;56.70;;;;;;5073544;28;20016;-85
2023/09/21 10:11:51;;;;;;;8.73;1.45;;;17.80;56.60;;;;;;5073846;28;20020;-83
2023/09/21 10:14:19;;;;;;;7.05;1.52;;;17.80;56.10;;;;;;5073694;28;20028;-83
2023/09/21 10:16:57;;;;;;;5.75;1.60;;;17.80;55.90;;;;;;5073274;28;20052;-84
2023/09/21 10:19:29;;;;;;;9.38;1.90;;;17.80;56.00;;;;;;5073762;28;20111;-83
2023/09/21 10:22:00;;;;;;;12.52;1.65;;;17.80;55.90;;;;;;5073435;28;20123;-83
2023/09/21 10:24:31;;;;;;;9.50;2.03;;;17.80;56.10;;;;;;5073185;28;20063;-84
2023/09/21 10:26:58;;;;;;;7.85;1.50;;;17.80;56.00;;;;;;5072577;28;20086;-82
2023/09/21 10:29:33;;;;;;;7.05;1.90;;;17.80;55.70;;;;;;5072893;28;20079;-82
2023/09/21 10:32:11;;;;;;;7.85;1.45;;;17.80;55.80;;;;;;5072783;28;20035;-85
2023/09/21 10:34:48;;;;;;;8.63;1.65;;;17.80;55.20;;;;;;5071512;28;20025;-84
2023/09/21 10:37:18;;;;;;;6.47;1.67;;;17.80;55.50;;;;;;5070704;28;20044;-83
2023/09/21 10:39:47;;;;;;;5.10;1.20;;;17.70;55.70;;;;;;5071204;28;20510;-83
2023/09/21 10:42:15;;;;;;;6.80;1.55;;;17.70;55.60;;;;;;5072680;28;20455;-83
2023/09/21 10:45:04;;;;;;;9.73;1.92;;;17.70;55.70;;;;;;5072403;28;20399;-83
2023/09/21 10:47:41;;;;;;;8.25;1.50;;;17.80;56.20;;;;;;5070601;28;20047;-84
2023/09/21 10:50:12;;;;;;;7.15;1.67;;;17.80;56.10;;;;;;5074609;28;20027;-84
2023/09/21 10:52:44;;;;;;;10.95;1.90;;;17.80;56.40;;;;;;5069570;28;20028;-84
2023/09/21 10:55:15;;;;;;;8.35;1.63;;;17.80;55.30;;;;;;5072325;28;20081;-83
2023/09/21 10:57:44;;;;;;;5.57;1.70;;;17.70;55.50;;;;;;5075250;28;20035;-84
2023/09/21 11:00:21;;;;;;;12.43;2.03;;;17.80;55.80;;;;;;5072203;28;20017;-85
2023/09/21 11:02:50;;;;;;;9.35;1.58;;;17.70;59.10;;;;;;5077729;28;20107;-85
2023/09/21 11:05:19;;;;;;;8.90;1.83;;;17.60;61.90;;;;;;5072763;28;20471;-84
2023/09/21 11:07:51;;;;;;;8.82;1.60;;;17.50;62.50;;;;;;5072961;28;20017;-85
2023/09/21 11:10:19;;;;;;;6.70;1.52;;;17.30;63.00;;;;;;5071180;28;20036;-85
2023/09/21 11:12:48;;;;;;;6.10;1.15;;;17.20;63.50;;;;;;5072206;28;20129;-85
2023/09/21 11:15:19;;;;;;;8.32;2.03;;;17.20;64.00;;;;;;5072379;28;20033;-85
2023/09/21 11:17:47;;;;;;;10.65;1.90;;;17.10;64.30;;;;;;5071627;28;20088;-85
2023/09/21 11:20:20;;;;;;;8.57;2.05;;;17.10;64.50;;;;;;5073621;28;20104;-83
2023/09/21 11:22:48;;;;;;;10.63;1.60;;;17.00;64.50;;;;;;5074242;28;20098;-84
2023/09/21 11:25:22;;;;;;;7.50;1.33;;;16.90;65.10;;;;;;5071113;28;20717;-82
2023/09/21 11:27:50;;;;;;;7.57;1.45;;;17.00;65.50;;;;;;5054071;28;20075;-84
2023/09/21 11:30:18;;;;;;;7.88;1.65;;;16.90;65.40;;;;;;5053515;28;20051;-85
2023/09/21 11:32:50;;;;;;;7.03;1.60;;;16.90;65.10;;;;;;5056095;28;20036;-86
2023/09/21 11:35:18;;;;;;;6.97;1.30;;;16.90;65.60;;;;;;5073096;28;20522;-84
2023/09/21 11:37:52;;;;;;;6.35;1.30;;;16.90;65.40;;;;;;5073971;28;20028;-86
2023/09/21 11:40:23;;;;;;;11.77;1.48;;;17.00;65.60;;;;;;5074816;28;20036;-84
2023/09/21 11:42:57;;;;;;;5.22;1.60;;;17.00;64.80;;;;;;5075553;28;20031;-85
2023/09/21 11:45:25;;;;;;;7.07;1.35;;;17.00;64.30;;;;;;5073521;28;20107;-85
2023/09/21 11:47:58;;;;;;;7.47;1.58;;;17.10;64.30;;;;;;5072450;28;20016;-84
2023/09/21 11:50:32;;;;;;;9.98;1.80;;;17.10;64.10;;;;;;5072656;28;20031;-86
2023/09/21 11:53:00;;;;;;;8.18;1.70;;;17.10;62.80;;;;;;5072484;28;20021;-85
2023/09/21 11:55:33;;;;;;;5.85;1.60;;;17.00;62.30;;;;;;5070943;28;20029;-83
2023/09/21 11:58:16;;;;;;;9.15;1.80;;;17.10;62.50;;;;;;5054700;28;20102;-84
2023/09/21 12:00:49;;;;;;;10.88;2.00;;;17.10;62.50;;;;;;5075504;28;20028;-84
2023/09/21 12:03:24;;;;;;;7.18;1.75;;;17.10;62.70;;;;;;5075789;28;20078;-82
2023/09/21 12:05:55;;;;;;;7.65;1.45;;;17.00;61.90;;;;;;5076160;28;20074;-80
2023/09/21 12:08:27;;;;;;;7.10;1.23;;;17.00;61.70;;;;;;5076440;28;20016;-81
2023/09/21 12:11:04;;;;;;;4.65;1.05;;;17.00;61.60;;;;;;5073818;28;20124;-82
2023/09/21 12:13:32;;;;;;;6.47;1.33;;;17.00;62.60;;;;;;5075765;28;20028;-81
2023/09/21 12:16:00;;;;;;;4.85;1.20;;;17.00;64.10;;;;;;5076235;28;20153;-80
2023/09/21 12:18:28;;;;;;;7.68;1.40;;;17.00;63.80;;;;;;5075771;28;20025;-80
2023/09/21 12:21:00;;;;;;;8.55;1.35;;;17.00;63.90;;;;;;5075475;28;20017;-81
2023/09/21 12:23:27;;;;;;;9.30;2.28;;;17.00;63.20;;;;;;5075629;28;20016;-81
2023/09/21 12:25:55;;;;;;;5.93;1.40;;;16.90;62.90;;;;;;5075579;28;20387;-81
2023/09/21 12:28:23;;;;;;;10.73;2.75;;;16.90;63.10;;;;;;5075488;28;20053;-83
2023/09/21 12:30:51;;;;;;;8.98;1.63;;;16.90;63.40;;;;;;5075307;28;20040;-81
2023/09/21 12:33:19;;;;;;;12.57;1.65;;;17.00;63.20;;;;;;5075494;28;20102;-82
2023/09/21 12:35:47;;;;;;;4.88;1.30;;;17.00;62.10;;;;;;5075334;28;20426;-82
2023/09/21 12:38:15;;;;;;;6.00;1.45;;;17.00;62.00;;;;;;5075325;28;20025;-79
2023/09/21 12:40:43;;;;;;;5.50;1.30;;;17.00;60.90;;;;;;5073623;28;20020;-81
2023/09/21 12:43:10;;;;;;;10.25;1.52;;;17.00;61.50;;;;;;5074215;28;20036;-81
2023/09/21 12:45:38;;;;;;;7.13;1.33;;;16.90;61.00;;;;;;5074727;28;20032;-79
2023/09/21 12:48:08;;;;;;;5.82;1.23;;;17.00;61.10;;;;;;5075051;28;20056;-81
2023/09/21 12:50:36;;;;;;;6.93;1.60;;;16.90;60.40;;;;;;5075132;28;20020;-82
2023/09/21 12:53:06;;;;;;;9.75;1.70;;;16.90;60.70;;;;;;5074603;28;20063;-82
2023/09/21 12:55:34;;;;;;;9.55;1.70;;;17.00;60.30;;;;;;5074933;28;20029;-80
2023/09/21 12:58:06;;;;;;;3.83;1.23;;;17.00;60.20;;;;;;5074720;28;20056;-81